sensor_id;sensor_type;location;lat;lon;timestamp;pressure;altitude;pressure_sealevel;temperature;humidity
61018;BME280;48171;51.550;5.434;2023-03-23T00:01:53;100268.59;;;10.74;100.00
61018;BME280;48171;51.550;5.434;2023-03-23T00:04:18;100273.00;;;10.75;100.00
61018;BME280;48171;51.550;5.434;2023-03-23T00:06:43;100285.31;;;10.76;100.00
61018;BME280;48171;51.550;5.434;2023-03-23T00:09:11;100281.78;;;10.77;100.00
61018;BME280;48171;51.550;5.434;2023-03-23T00:11:37;100260.63;;;10.77;100.00
61018;BME280;48171;51.550;5.434;2023-03-23T00:14:04;100261.50;;;10.78;100.00
61018;BME280;48171;51.550;5.434;2023-03-23T00:16:31;100264.13;;;10.78;100.00
61018;BME280;48171;51.550;5.434;2023-03-23T00:19:03;100279.97;;;10.79;100.00
61018;BME280;48171;51.550;5.434;2023-03-23T00:21:35;100285.19;;;10.82;100.00
61018;BME280;48171;51.550;5.434;2023-03-23T00:24:09;100274.59;;;10.84;100.00
61018;BME280;48171;51.550;5.434;2023-03-23T00:26:37;100266.69;;;10.84;100.00
61018;BME280;48171;51.550;5.434;2023-03-23T00:29:08;100271.97;;;10.82;100.00
61018;BME280;48171;51.550;5.434;2023-03-23T00:31:38;100275.53;;;10.83;100.00
61018;BME280;48171;51.550;5.434;2023-03-23T00:34:04;100279.91;;;10.82;100.00
61018;BME280;48171;51.550;5.434;2023-03-23T00:36:31;100277.25;;;10.84;100.00
61018;BME280;48171;51.550;5.434;2023-03-23T00:38:57;100287.81;;;10.84;100.00
61018;BME280;48171;51.550;5.434;2023-03-23T00:41:26;100277.25;;;10.84;100.00
61018;BME280;48171;51.550;5.434;2023-03-23T00:43:56;100274.56;;;10.89;100.00
61018;BME280;48171;51.550;5.434;2023-03-23T00:46:22;100270.13;;;10.89;100.00
61018;BME280;48171;51.550;5.434;2023-03-23T00:48:48;100266.53;;;10.93;100.00
61018;BME280;48171;51.550;5.434;2023-03-23T00:51:16;100261.16;;;10.96;100.00
61018;BME280;48171;51.550;5.434;2023-03-23T00:53:42;100258.53;;;10.96;100.00
61018;BME280;48171;51.550;5.434;2023-03-23T00:56:08;100264.66;;;10.98;100.00
61018;BME280;48171;51.550;5.434;2023-03-23T00:58:34;100270.88;;;10.97;100.00
61018;BME280;48171;51.550;5.434;2023-03-23T01:01:00;100269.09;;;10.96;100.00
61018;BME280;48171;51.550;5.434;2023-03-23T01:03:25;100242.66;;;10.96;100.00
61018;BME280;48171;51.550;5.434;2023-03-23T01:05:52;100226.03;;;10.93;100.00
61018;BME280;48171;51.550;5.434;2023-03-23T01:08:18;100222.56;;;10.88;100.00
61018;BME280;48171;51.550;5.434;2023-03-23T01:10:44;100220.91;;;10.82;100.00
61018;BME280;48171;51.550;5.434;2023-03-23T01:13:10;100231.56;;;10.77;100.00
61018;BME280;48171;51.550;5.434;2023-03-23T01:15:35;100221.88;;;10.78;100.00
61018;BME280;48171;51.550;5.434;2023-03-23T01:18:01;100188.47;;;10.74;100.00
61018;BME280;48171;51.550;5.434;2023-03-23T01:20:27;100194.56;;;10.77;100.00
61018;BME280;48171;51.550;5.434;2023-03-23T01:22:54;100196.41;;;10.72;100.00
61018;BME280;48171;51.550;5.434;2023-03-23T01:25:25;100214.84;;;10.77;100.00
61018;BME280;48171;51.550;5.434;2023-03-23T01:27:50;100206.03;;;10.76;100.00
61018;BME280;48171;51.550;5.434;2023-03-23T01:30:16;100200.75;;;10.76;100.00
61018;BME280;48171;51.550;5.434;2023-03-23T01:32:41;100199.00;;;10.77;100.00
61018;BME280;48171;51.550;5.434;2023-03-23T01:35:07;100201.59;;;10.78;100.00
61018;BME280;48171;51.550;5.434;2023-03-23T01:37:32;100205.91;;;10.82;100.00
61018;BME280;48171;51.550;5.434;2023-03-23T01:39:58;100203.28;;;10.82;100.00
61018;BME280;48171;51.550;5.434;2023-03-23T01:42:25;100202.38;;;10.84;100.00
61018;BME280;48171;51.550;5.434;2023-03-23T01:47:16;100200.59;;;10.86;100.00
61018;BME280;48171;51.550;5.434;2023-03-23T01:49:46;100215.50;;;10.88;100.00
61018;BME280;48171;51.550;5.434;2023-03-23T01:52:20;100206.72;;;10.88;100.00
61018;BME280;48171;51.550;5.434;2023-03-23T01:54:49;100203.19;;;10.89;100.00
61018;BME280;48171;51.550;5.434;2023-03-23T01:57:17;100195.25;;;10.89;100.00
61018;BME280;48171;51.550;5.434;2023-03-23T01:59:45;100196.06;;;10.92;100.00
61018;BME280;48171;51.550;5.434;2023-03-23T02:02:13;100187.25;;;10.92;100.00
61018;BME280;48171;51.550;5.434;2023-03-23T02:04:40;100176.66;;;10.93;100.00
61018;BME280;48171;51.550;5.434;2023-03-23T02:07:07;100171.34;;;10.95;100.00
61018;BME280;48171;51.550;5.434;2023-03-23T02:09:33;100167.78;;;10.96;100.00
61018;BME280;48171;51.550;5.434;2023-03-23T02:11:58;100169.56;;;10.95;100.00
61018;BME280;48171;51.550;5.434;2023-03-23T02:14:26;100156.34;;;10.97;100.00
61018;BME280;48171;51.550;5.434;2023-03-23T02:16:55;100166.00;;;10.98;100.00
61018;BME280;48171;51.550;5.434;2023-03-23T02:25:18;100163.31;;;10.99;100.00
61018;BME280;48171;51.550;5.434;2023-03-23T02:38:44;100146.44;;;11.07;100.00
61018;BME280;48171;51.550;5.434;2023-03-23T02:41:18;100151.72;;;11.07;100.00
61018;BME280;48171;51.550;5.434;2023-03-23T02:43:46;100131.63;;;10.98;100.00
61018;BME280;48171;51.550;5.434;2023-03-23T02:46:13;100148.09;;;11.11;100.00
61018;BME280;48171;51.550;5.434;2023-03-23T02:48:41;100141.94;;;11.12;100.00
61018;BME280;48171;51.550;5.434;2023-03-23T02:51:10;100150.69;;;11.14;100.00
61018;BME280;48171;51.550;5.434;2023-03-23T02:53:39;100157.66;;;11.18;100.00
61018;BME280;48171;51.550;5.434;2023-03-23T02:56:07;100154.13;;;11.19;100.00
61018;BME280;48171;51.550;5.434;2023-03-23T02:58:34;100141.78;;;11.19;100.00
61018;BME280;48171;51.550;5.434;2023-03-23T03:03:54;100156.59;;;11.27;100.00
61018;BME280;48171;51.550;5.434;2023-03-23T03:06:36;100145.97;;;11.30;100.00
61018;BME280;48171;51.550;5.434;2023-03-23T03:09:21;100147.75;;;11.29;100.00
61018;BME280;48171;51.550;5.434;2023-03-23T03:11:52;100151.16;;;11.33;100.00
61018;BME280;48171;51.550;5.434;2023-03-23T03:14:29;100167.81;;;11.38;100.00
61018;BME280;48171;51.550;5.434;2023-03-23T03:17:17;100153.75;;;11.37;100.00
61018;BME280;48171;51.550;5.434;2023-03-23T03:19:49;100159.88;;;11.39;100.00
61018;BME280;48171;51.550;5.434;2023-03-23T03:22:17;100151.84;;;11.43;100.00
61018;BME280;48171;51.550;5.434;2023-03-23T03:24:42;100158.00;;;11.43;100.00
61018;BME280;48171;51.550;5.434;2023-03-23T03:27:18;100165.06;;;11.44;100.00
61018;BME280;48171;51.550;5.434;2023-03-23T03:29:49;100157.13;;;11.44;100.00
61018;BME280;48171;51.550;5.434;2023-03-23T03:32:22;100155.34;;;11.45;100.00
61018;BME280;48171;51.550;5.434;2023-03-23T03:34:49;100159.75;;;11.46;100.00
61018;BME280;48171;51.550;5.434;2023-03-23T03:37:16;100165.03;;;11.46;100.00
61018;BME280;48171;51.550;5.434;2023-03-23T03:39:42;100168.53;;;11.46;100.00
61018;BME280;48171;51.550;5.434;2023-03-23T03:42:08;100163.25;;;11.46;100.00
61018;BME280;48171;51.550;5.434;2023-03-23T03:44:33;100154.38;;;11.47;100.00
61018;BME280;48171;51.550;5.434;2023-03-23T03:46:59;100165.84;;;11.49;100.00
61018;BME280;48171;51.550;5.434;2023-03-23T03:49:24;100162.28;;;11.49;100.00
61018;BME280;48171;51.550;5.434;2023-03-23T03:51:50;100159.59;;;11.52;100.00
61018;BME280;48171;51.550;5.434;2023-03-23T03:54:16;100155.16;;;11.54;100.00
61018;BME280;48171;51.550;5.434;2023-03-23T03:56:41;100149.00;;;11.53;100.00
61018;BME280;48171;51.550;5.434;2023-03-23T03:59:08;100163.09;;;11.52;100.00
61018;BME280;48171;51.550;5.434;2023-03-23T04:01:36;100171.97;;;11.51;100.00
61018;BME280;48171;51.550;5.434;2023-03-23T04:04:02;100172.81;;;11.52;100.00
61018;BME280;48171;51.550;5.434;2023-03-23T04:06:28;100170.16;;;11.53;100.00
61018;BME280;48171;51.550;5.434;2023-03-23T04:08:55;100171.06;;;11.51;100.00
61018;BME280;48171;51.550;5.434;2023-03-23T04:11:20;100178.16;;;11.50;99.36
61018;BME280;48171;51.550;5.434;2023-03-23T04:13:45;100172.84;;;11.50;100.00
61018;BME280;48171;51.550;5.434;2023-03-23T04:16:11;100173.81;;;11.48;99.55
61018;BME280;48171;51.550;5.434;2023-03-23T04:18:36;100178.16;;;11.49;99.69
61018;BME280;48171;51.550;5.434;2023-03-23T04:21:02;100179.94;;;11.48;99.05
61018;BME280;48171;51.550;5.434;2023-03-23T04:23:30;100180.84;;;11.47;99.31
61018;BME280;48171;51.550;5.434;2023-03-23T04:25:58;100179.09;;;11.48;98.41
61018;BME280;48171;51.550;5.434;2023-03-23T04:28:24;100180.84;;;11.47;98.92
61018;BME280;48171;51.550;5.434;2023-03-23T04:30:51;100186.19;;;11.46;99.00
61018;BME280;48171;51.550;5.434;2023-03-23T04:33:22;100189.66;;;11.48;98.34
61018;BME280;48171;51.550;5.434;2023-03-23T04:35:50;100195.78;;;11.51;98.22
61018;BME280;48171;51.550;5.434;2023-03-23T04:38:17;100202.88;;;11.49;97.73
61018;BME280;48171;51.550;5.434;2023-03-23T04:40:45;100200.22;;;11.49;98.36
61018;BME280;48171;51.550;5.434;2023-03-23T04:43:11;100198.47;;;11.48;98.09
61018;BME280;48171;51.550;5.434;2023-03-23T04:45:38;100209.06;;;11.48;97.31
61018;BME280;48171;51.550;5.434;2023-03-23T04:48:06;100197.59;;;11.49;96.79
61018;BME280;48171;51.550;5.434;2023-03-23T04:50:32;100200.16;;;11.52;96.07
61018;BME280;48171;51.550;5.434;2023-03-23T04:52:59;100203.72;;;11.51;97.22
61018;BME280;48171;51.550;5.434;2023-03-23T04:55:30;100207.25;;;11.50;97.49
61018;BME280;48171;51.550;5.434;2023-03-23T04:57:55;100209.00;;;11.51;96.62
61018;BME280;48171;51.550;5.434;2023-03-23T05:00:21;100201.94;;;11.50;96.94
61018;BME280;48171;51.550;5.434;2023-03-23T05:02:47;100211.66;;;11.50;96.96
61018;BME280;48171;51.550;5.434;2023-03-23T05:05:17;100207.28;;;11.49;96.77
61018;BME280;48171;51.550;5.434;2023-03-23T05:07:42;100201.97;;;11.49;96.85
61018;BME280;48171;51.550;5.434;2023-03-23T05:10:09;100198.47;;;11.48;97.31
61018;BME280;48171;51.550;5.434;2023-03-23T05:12:35;100203.78;;;11.47;97.40
61018;BME280;48171;51.550;5.434;2023-03-23T05:15:01;100200.31;;;11.43;97.46
61018;BME280;48171;51.550;5.434;2023-03-23T05:17:27;100203.88;;;11.44;98.13
61018;BME280;48171;51.550;5.434;2023-03-23T05:19:55;100195.94;;;11.44;97.25
61018;BME280;48171;51.550;5.434;2023-03-23T05:22:22;100188.88;;;11.43;97.93
61018;BME280;48171;51.550;5.434;2023-03-23T05:24:47;100193.31;;;11.42;97.00
61018;BME280;48171;51.550;5.434;2023-03-23T05:27:13;100203.88;;;11.42;96.63
61018;BME280;48171;51.550;5.434;2023-03-23T05:29:40;100204.78;;;11.41;97.58
61018;BME280;48171;51.550;5.434;2023-03-23T05:32:07;100211.84;;;11.40;97.88
61018;BME280;48171;51.550;5.434;2023-03-23T05:34:34;100223.34;;;11.39;97.65
61018;BME280;48171;51.550;5.434;2023-03-23T05:37:00;100204.00;;;11.37;98.01
61018;BME280;48171;51.550;5.434;2023-03-23T05:39:26;100202.25;;;11.36;97.90
61018;BME280;48171;51.550;5.434;2023-03-23T05:41:51;100204.03;;;11.34;97.66
61018;BME280;48171;51.550;5.434;2023-03-23T05:44:17;100210.25;;;11.33;98.93
61018;BME280;48171;51.550;5.434;2023-03-23T05:46:43;100202.38;;;11.30;98.85
61018;BME280;48171;51.550;5.434;2023-03-23T05:49:08;100211.25;;;11.28;99.22
61018;BME280;48171;51.550;5.434;2023-03-23T05:51:34;100206.91;;;11.25;99.73
61018;BME280;48171;51.550;5.434;2023-03-23T05:54:00;100219.22;;;11.25;99.63
61018;BME280;48171;51.550;5.434;2023-03-23T05:56:25;100213.94;;;11.25;100.00
61018;BME280;48171;51.550;5.434;2023-03-23T05:58:50;100216.66;;;11.21;100.00
61018;BME280;48171;51.550;5.434;2023-03-23T06:01:16;100207.88;;;11.19;99.78
61018;BME280;48171;51.550;5.434;2023-03-23T06:03:42;100217.53;;;11.20;100.00
61018;BME280;48171;51.550;5.434;2023-03-23T06:06:10;100212.31;;;11.17;100.00
61018;BME280;48171;51.550;5.434;2023-03-23T06:08:36;100207.03;;;11.17;99.99
61018;BME280;48171;51.550;5.434;2023-03-23T06:11:02;100211.38;;;11.21;99.76
61018;BME280;48171;51.550;5.434;2023-03-23T06:13:28;100213.09;;;11.23;99.27
61018;BME280;48171;51.550;5.434;2023-03-23T06:15:56;100224.50;;;11.25;100.00
61018;BME280;48171;51.550;5.434;2023-03-23T06:18:24;100235.97;;;11.25;99.76
61018;BME280;48171;51.550;5.434;2023-03-23T06:20:51;100237.72;;;11.26;99.27
61018;BME280;48171;51.550;5.434;2023-03-23T06:23:17;100238.56;;;11.28;98.51
61018;BME280;48171;51.550;5.434;2023-03-23T06:25:43;100253.47;;;11.31;98.37
61018;BME280;48171;51.550;5.434;2023-03-23T06:28:09;100251.75;;;11.30;97.18
61018;BME280;48171;51.550;5.434;2023-03-23T06:30:36;100265.75;;;11.35;98.32
61018;BME280;48171;51.550;5.434;2023-03-23T06:33:01;100265.72;;;11.36;97.61
61018;BME280;48171;51.550;5.434;2023-03-23T06:35:30;100278.06;;;11.37;96.45
61018;BME280;48171;51.550;5.434;2023-03-23T06:37:55;100267.41;;;11.39;96.71
61018;BME280;48171;51.550;5.434;2023-03-23T06:40:23;100262.97;;;11.41;96.75
61018;BME280;48171;51.550;5.434;2023-03-23T06:42:48;100273.53;;;11.43;96.34
61018;BME280;48171;51.550;5.434;2023-03-23T06:45:14;100278.78;;;11.44;96.31
61018;BME280;48171;51.550;5.434;2023-03-23T06:47:39;100282.44;;;11.38;98.00
61018;BME280;48171;51.550;5.434;2023-03-23T06:50:05;100281.47;;;11.43;97.19
61018;BME280;48171;51.550;5.434;2023-03-23T06:52:30;100275.34;;;11.39;97.84
61018;BME280;48171;51.550;5.434;2023-03-23T06:54:56;100285.94;;;11.39;96.92
61018;BME280;48171;51.550;5.434;2023-03-23T06:57:21;100296.56;;;11.37;97.84
61018;BME280;48171;51.550;5.434;2023-03-23T06:59:47;100295.66;;;11.38;98.54
61018;BME280;48171;51.550;5.434;2023-03-23T07:02:13;100299.25;;;11.34;98.55
61018;BME280;48171;51.550;5.434;2023-03-23T07:04:42;100305.38;;;11.36;97.26
61018;BME280;48171;51.550;5.434;2023-03-23T07:07:09;100305.41;;;11.35;98.06
61018;BME280;48171;51.550;5.434;2023-03-23T07:09:35;100298.41;;;11.34;99.29
61018;BME280;48171;51.550;5.434;2023-03-23T07:12:00;100296.75;;;11.27;100.00
61018;BME280;48171;51.550;5.434;2023-03-23T07:14:25;100311.72;;;11.29;100.00
61018;BME280;48171;51.550;5.434;2023-03-23T07:16:51;100321.47;;;11.26;100.00
61018;BME280;48171;51.550;5.434;2023-03-23T07:19:16;100329.44;;;11.23;100.00
61018;BME280;48171;51.550;5.434;2023-03-23T07:21:42;100321.59;;;11.18;100.00
61018;BME280;48171;51.550;5.434;2023-03-23T07:24:11;100326.19;;;11.08;100.00
61018;BME280;48171;51.550;5.434;2023-03-23T07:26:41;100333.38;;;11.00;100.00
61018;BME280;48171;51.550;5.434;2023-03-23T07:29:08;100337.88;;;10.95;100.00
61018;BME280;48171;51.550;5.434;2023-03-23T07:31:34;100330.94;;;10.88;100.00
61018;BME280;48171;51.550;5.434;2023-03-23T07:33:59;100342.56;;;10.77;100.00
61018;BME280;48171;51.550;5.434;2023-03-23T07:36:25;100376.16;;;10.69;100.00
61018;BME280;48171;51.550;5.434;2023-03-23T07:38:51;100372.69;;;10.64;100.00
61018;BME280;48171;51.550;5.434;2023-03-23T07:41:16;100351.78;;;10.50;100.00
61018;BME280;48171;51.550;5.434;2023-03-23T07:43:42;100355.50;;;10.37;100.00
61018;BME280;48171;51.550;5.434;2023-03-23T07:46:07;100341.50;;;10.29;100.00
61018;BME280;48171;51.550;5.434;2023-03-23T07:48:33;100335.38;;;10.25;100.00
61018;BME280;48171;51.550;5.434;2023-03-23T07:50:58;100338.09;;;10.20;100.00
61018;BME280;48171;51.550;5.434;2023-03-23T07:53:24;100341.66;;;10.18;100.00
61018;BME280;48171;51.550;5.434;2023-03-23T07:55:50;100343.41;;;10.16;100.00
61018;BME280;48171;51.550;5.434;2023-03-23T07:58:15;100347.03;;;10.10;100.00
61018;BME280;48171;51.550;5.434;2023-03-23T08:00:45;100351.38;;;10.13;100.00
61018;BME280;48171;51.550;5.434;2023-03-23T08:03:10;100355.84;;;10.08;100.00
61018;BME280;48171;51.550;5.434;2023-03-23T08:05:36;100361.97;;;10.10;100.00
61018;BME280;48171;51.550;5.434;2023-03-23T08:08:01;100363.75;;;10.09;100.00
61018;BME280;48171;51.550;5.434;2023-03-23T08:10:27;100368.16;;;10.09;100.00
61018;BME280;48171;51.550;5.434;2023-03-23T08:12:54;100368.22;;;10.04;100.00
61018;BME280;48171;51.550;5.434;2023-03-23T08:15:20;100381.34;;;10.09;100.00
61018;BME280;48171;51.550;5.434;2023-03-23T08:17:47;100379.50;;;10.15;100.00
61018;BME280;48171;51.550;5.434;2023-03-23T08:20:13;100381.13;;;10.26;100.00
61018;BME280;48171;51.550;5.434;2023-03-23T08:22:40;100379.31;;;10.29;100.00
61018;BME280;48171;51.550;5.434;2023-03-23T08:25:07;100381.03;;;10.36;100.00
61018;BME280;48171;51.550;5.434;2023-03-23T08:27:33;100385.38;;;10.39;100.00
61018;BME280;48171;51.550;5.434;2023-03-23T08:29:59;100385.38;;;10.39;100.00
61018;BME280;48171;51.550;5.434;2023-03-23T08:32:24;100391.59;;;10.36;100.00
61018;BME280;48171;51.550;5.434;2023-03-23T08:34:50;100375.75;;;10.35;100.00
61018;BME280;48171;51.550;5.434;2023-03-23T08:37:15;100383.63;;;10.38;100.00
61018;BME280;48171;51.550;5.434;2023-03-23T08:39:42;100381.81;;;10.41;100.00
61018;BME280;48171;51.550;5.434;2023-03-23T08:42:08;100372.97;;;10.46;100.00
61018;BME280;48171;51.550;5.434;2023-03-23T08:44:34;100373.88;;;10.45;100.00
61018;BME280;48171;51.550;5.434;2023-03-23T08:47:00;100381.72;;;10.49;100.00
61018;BME280;48171;51.550;5.434;2023-03-23T08:49:27;100381.72;;;10.51;100.00
61018;BME280;48171;51.550;5.434;2023-03-23T08:51:53;100380.88;;;10.47;100.00
61018;BME280;48171;51.550;5.434;2023-03-23T08:54:18;100392.19;;;10.55;100.00
61018;BME280;48171;51.550;5.434;2023-03-23T08:56:44;100401.81;;;10.61;100.00
61018;BME280;48171;51.550;5.434;2023-03-23T08:59:09;100395.63;;;10.62;100.00
61018;BME280;48171;51.550;5.434;2023-03-23T09:01:35;100389.44;;;10.65;100.00
61018;BME280;48171;51.550;5.434;2023-03-23T09:04:00;100396.44;;;10.66;100.00
61018;BME280;48171;51.550;5.434;2023-03-23T09:06:26;100402.47;;;10.77;100.00
61018;BME280;48171;51.550;5.434;2023-03-23T09:08:53;100400.72;;;10.74;100.00
61018;BME280;48171;51.550;5.434;2023-03-23T09:11:20;100386.63;;;10.75;100.00
61018;BME280;48171;51.550;5.434;2023-03-23T09:13:45;100376.91;;;10.77;100.00
61018;BME280;48171;51.550;5.434;2023-03-23T09:16:11;100371.59;;;10.79;100.00
61018;BME280;48171;51.550;5.434;2023-03-23T09:18:36;100381.16;;;10.88;100.00
61018;BME280;48171;51.550;5.434;2023-03-23T09:21:02;100395.22;;;10.88;100.00
61018;BME280;48171;51.550;5.434;2023-03-23T09:23:28;100392.63;;;10.87;100.00
61018;BME280;48171;51.550;5.434;2023-03-23T09:25:54;100401.47;;;10.84;100.00
61018;BME280;48171;51.550;5.434;2023-03-23T09:28:19;100405.13;;;10.74;100.00
61018;BME280;48171;51.550;5.434;2023-03-23T09:30:45;100398.06;;;10.74;100.00
61018;BME280;48171;51.550;5.434;2023-03-23T09:33:13;100393.72;;;10.72;100.00
61018;BME280;48171;51.550;5.434;2023-03-23T09:35:38;100392.88;;;10.70;100.00
61018;BME280;48171;51.550;5.434;2023-03-23T09:38:06;100392.03;;;10.68;100.00
61018;BME280;48171;51.550;5.434;2023-03-23T09:40:49;100407.88;;;10.68;100.00
61018;BME280;48171;51.550;5.434;2023-03-23T09:43:37;100405.25;;;10.66;100.00
61018;BME280;48171;51.550;5.434;2023-03-23T09:48:47;100408.81;;;10.62;100.00
61018;BME280;48171;51.550;5.434;2023-03-23T09:54:48;100402.47;;;10.77;100.00
61018;BME280;48171;51.550;5.434;2023-03-23T10:00:24;100404.13;;;10.82;100.00
61018;BME280;48171;51.550;5.434;2023-03-23T10:03:13;100409.28;;;10.92;100.00
61018;BME280;48171;51.550;5.434;2023-03-23T10:05:54;100403.03;;;10.97;100.00
61018;BME280;48171;51.550;5.434;2023-03-23T10:08:22;100405.59;;;11.00;100.00
61018;BME280;48171;51.550;5.434;2023-03-23T10:14:14;100402.72;;;11.16;100.00
61018;BME280;48171;51.550;5.434;2023-03-23T10:17:01;100413.22;;;11.20;100.00
61018;BME280;48171;51.550;5.434;2023-03-23T10:19:37;100414.84;;;11.29;100.00
61018;BME280;48171;51.550;5.434;2023-03-23T10:22:09;100427.88;;;11.41;100.00
61018;BME280;48171;51.550;5.434;2023-03-23T10:24:51;100426.81;;;11.50;100.00
61018;BME280;48171;51.550;5.434;2023-03-23T10:27:26;100424.06;;;11.56;100.00
61018;BME280;48171;51.550;5.434;2023-03-23T10:30:15;100433.59;;;11.67;100.00
61018;BME280;48171;51.550;5.434;2023-03-23T10:32:51;100440.28;;;11.86;100.00
61018;BME280;48171;51.550;5.434;2023-03-23T10:35:25;100435.66;;;11.99;98.17
61018;BME280;48171;51.550;5.434;2023-03-23T10:37:56;100437.22;;;12.09;98.75
61018;BME280;48171;51.550;5.434;2023-03-23T10:40:26;100444.19;;;12.15;95.77
61018;BME280;48171;51.550;5.434;2023-03-23T10:42:53;100448.41;;;12.24;96.75
61018;BME280;48171;51.550;5.434;2023-03-23T10:45:23;100442.78;;;12.40;98.05
61018;BME280;48171;51.550;5.434;2023-03-23T10:47:56;100441.72;;;12.48;97.51
61018;BME280;48171;51.550;5.434;2023-03-23T10:50:32;100426.63;;;12.53;97.60
61018;BME280;48171;51.550;5.434;2023-03-23T10:53:00;100430.94;;;12.57;96.79
61018;BME280;48171;51.550;5.434;2023-03-23T10:55:37;100431.66;;;12.65;96.95
61018;BME280;48171;51.550;5.434;2023-03-23T10:58:07;100439.59;;;12.65;95.28
61018;BME280;48171;51.550;5.434;2023-03-23T11:00:40;100430.84;;;12.61;93.73
61018;BME280;48171;51.550;5.434;2023-03-23T11:05:56;100423.69;;;12.65;96.36
61018;BME280;48171;51.550;5.434;2023-03-23T11:08:25;100433.25;;;12.72;93.43
61018;BME280;48171;51.550;5.434;2023-03-23T11:10:54;100435.13;;;12.69;91.20
61018;BME280;48171;51.550;5.434;2023-03-23T11:13:22;100427.00;;;12.75;93.04
61018;BME280;48171;51.550;5.434;2023-03-23T11:15:50;100418.81;;;12.86;92.91
61018;BME280;48171;51.550;5.434;2023-03-23T11:18:20;100421.09;;;13.01;92.09
61018;BME280;48171;51.550;5.434;2023-03-23T11:20:50;100427.94;;;13.11;88.87
61018;BME280;48171;51.550;5.434;2023-03-23T11:25:55;100440.81;;;13.27;87.49
61018;BME280;48171;51.550;5.434;2023-03-23T11:28:26;100446.94;;;13.29;87.63
61018;BME280;48171;51.550;5.434;2023-03-23T11:30:54;100449.53;;;13.33;88.31
61018;BME280;48171;51.550;5.434;2023-03-23T11:33:20;100445.16;;;13.31;85.16
61018;BME280;48171;51.550;5.434;2023-03-23T11:35:45;100449.59;;;13.29;85.20
61018;BME280;48171;51.550;5.434;2023-03-23T11:38:18;100457.56;;;13.29;86.11
61018;BME280;48171;51.550;5.434;2023-03-23T11:40:49;100443.56;;;13.24;83.38
61018;BME280;48171;51.550;5.434;2023-03-23T11:43:19;100449.69;;;13.26;85.59
61018;BME280;48171;51.550;5.434;2023-03-23T11:45:50;100446.94;;;13.30;86.74
61018;BME280;48171;51.550;5.434;2023-03-23T11:51:00;100452.25;;;13.29;87.75
61018;BME280;48171;51.550;5.434;2023-03-23T11:56:27;100447.38;;;13.49;87.69
61018;BME280;48171;51.550;5.434;2023-03-23T11:58:56;100438.19;;;13.61;87.79
61018;BME280;48171;51.550;5.434;2023-03-23T12:04:17;100431.44;;;13.84;85.52
61018;BME280;48171;51.550;5.434;2023-03-23T12:07:21;100418.88;;;13.89;86.27
61018;BME280;48171;51.550;5.434;2023-03-23T12:10:02;100410.88;;;13.90;83.13
61018;BME280;48171;51.550;5.434;2023-03-23T12:12:44;100405.28;;;13.99;85.19
61018;BME280;48171;51.550;5.434;2023-03-23T12:21:01;100415.97;;;14.29;80.42
61018;BME280;48171;51.550;5.434;2023-03-23T12:23:38;100424.53;;;14.39;78.66
61018;BME280;48171;51.550;5.434;2023-03-23T12:28:45;100420.41;;;14.29;81.05
61018;BME280;48171;51.550;5.434;2023-03-23T12:31:25;100410.47;;;14.35;82.86
61018;BME280;48171;51.550;5.434;2023-03-23T12:42:58;100383.75;;;14.40;82.74
61018;BME280;48171;51.550;5.434;2023-03-23T12:48:13;100392.50;;;14.44;80.39
61018;BME280;48171;51.550;5.434;2023-03-23T12:53:32;100391.66;;;14.41;79.90
61018;BME280;48171;51.550;5.434;2023-03-23T12:56:06;100378.53;;;14.37;78.23
61018;BME280;48171;51.550;5.434;2023-03-23T12:58:44;100381.38;;;14.31;79.73
61018;BME280;48171;51.550;5.434;2023-03-23T13:03:39;100376.78;;;14.36;80.83
61018;BME280;48171;51.550;5.434;2023-03-23T13:06:25;100388.81;;;14.48;81.39
61018;BME280;48171;51.550;5.434;2023-03-23T13:09:02;100391.03;;;14.65;82.96
61018;BME280;48171;51.550;5.434;2023-03-23T13:11:33;100395.56;;;14.89;80.73
61018;BME280;48171;51.550;5.434;2023-03-23T13:22:37;100385.88;;;15.40;75.70
61018;BME280;48171;51.550;5.434;2023-03-23T13:25:10;100384.34;;;15.33;74.71
61018;BME280;48171;51.550;5.434;2023-03-23T13:27:38;100394.34;;;15.26;72.17
61018;BME280;48171;51.550;5.434;2023-03-23T13:30:04;100390.19;;;15.17;74.21
61018;BME280;48171;51.550;5.434;2023-03-23T13:32:42;100384.59;;;14.98;72.34
61018;BME280;48171;51.550;5.434;2023-03-23T13:35:17;100398.22;;;14.89;74.77
61018;BME280;48171;51.550;5.434;2023-03-23T13:37:48;100378.47;;;14.68;78.24
61018;BME280;48171;51.550;5.434;2023-03-23T13:42:50;100428.09;;;14.38;79.58
61018;BME280;48171;51.550;5.434;2023-03-23T13:45:44;100453.44;;;14.20;83.34
61018;BME280;48171;51.550;5.434;2023-03-23T13:50:50;100449.13;;;13.49;91.61
61018;BME280;48171;51.550;5.434;2023-03-23T13:56:02;100436.09;;;13.02;86.49
61018;BME280;48171;51.550;5.434;2023-03-23T13:58:28;100434.41;;;12.99;88.84
61018;BME280;48171;51.550;5.434;2023-03-23T14:01:16;100432.72;;;12.95;89.56
61018;BME280;48171;51.550;5.434;2023-03-23T14:03:45;100419.53;;;12.92;92.50
61018;BME280;48171;51.550;5.434;2023-03-23T14:06:17;100414.19;;;12.94;93.51
61018;BME280;48171;51.550;5.434;2023-03-23T14:08:47;100421.28;;;12.93;95.00
61018;BME280;48171;51.550;5.434;2023-03-23T14:11:17;100415.88;;;12.98;96.73
61018;BME280;48171;51.550;5.434;2023-03-23T14:16:39;100399.81;;;13.04;100.00
61018;BME280;48171;51.550;5.434;2023-03-23T14:19:18;100403.41;;;13.01;99.14
61018;BME280;48171;51.550;5.434;2023-03-23T14:21:59;100397.78;;;13.15;98.74
61018;BME280;48171;51.550;5.434;2023-03-23T14:24:39;100404.50;;;13.29;98.78
61018;BME280;48171;51.550;5.434;2023-03-23T14:29:30;100383.03;;;13.39;99.87